Time;durP1;ratioP1;P1;durP2;ratioP2;P2;SDS_P1;SDS_P2;PMS_P1;PMS_P2;Temp;Humidity;BMP_temperature;BMP_pressure;BME280_temperature;BME280_humidity;BME280_pressure;Samples;Min_cycle;Max_cycle;Signal;HPM_P1;HPM_P2
2023/04/04 00:02:14;;;;;;;3.53;3.20;;;;;;;3.08;39.02;100365.19;10441689;28;20231;-73
2023/04/04 00:07:16;;;;;;;2.80;2.60;;;;;;;3.56;38.61;100371.97;10445768;28;20245;-72
2023/04/04 00:12:17;;;;;;;3.50;3.20;;;;;;;2.70;38.47;100367.22;10440866;28;20227;-73
2023/04/04 00:17:19;;;;;;;3.67;3.37;;;;;;;3.76;38.61;100380.94;10442319;28;20246;-73
2023/04/04 00:22:21;;;;;;;3.20;2.90;;;;;;;2.71;39.81;100337.16;10441717;28;20227;-73
2023/04/04 00:27:23;;;;;;;3.23;3.00;;;;;;;3.15;39.09;100363.75;10441696;28;20388;-73
2023/04/04 00:32:24;;;;;;;3.17;2.87;;;;;;;3.62;39.37;100363.53;10432621;28;20227;-73
2023/04/04 00:37:26;;;;;;;3.50;3.20;;;;;;;2.78;40.17;100348.09;10441521;28;20318;-73
2023/04/04 00:42:28;;;;;;;2.80;2.60;;;;;;;3.35;39.25;100356.88;10423005;28;20239;-73
2023/04/04 00:47:30;;;;;;;3.30;3.10;;;;;;;3.27;39.26;100344.25;10452878;28;20257;-73
2023/04/04 00:52:32;;;;;;;4.40;3.43;;;;;;;2.32;40.29;100330.53;10443411;28;20222;-73
2023/04/04 00:57:34;;;;;;;2.97;2.67;;;;;;;3.88;38.98;100336.72;10443737;28;20233;-73
2023/04/04 01:02:36;;;;;;;4.13;3.50;;;;;;;2.60;39.99;100323.09;10440743;28;20235;-73
2023/04/04 01:07:39;;;;;;;4.13;3.77;;;;;;;2.98;39.61;100340.44;10444362;28;20239;-73
2023/04/04 01:12:41;;;;;;;3.50;3.20;;;;;;;4.14;38.97;100345.16;10435080;28;20576;-73
2023/04/04 01:17:43;;;;;;;3.47;3.17;;;;;;;3.47;39.36;100332.06;10441169;28;20231;-73
2023/04/04 01:22:48;;;;;;;4.20;3.80;;;;;;;2.91;40.01;100322.41;10442180;28;20319;-73
2023/04/04 01:27:49;;;;;;;4.07;3.30;;;;;;;2.13;40.80;100304.66;10433106;28;20245;-73
2023/04/04 01:33:00;;;;;;;5.03;3.80;;;;;;;2.80;40.02;100317.09;10439972;28;20234;-73
2023/04/04 01:38:21;;;;;;;3.97;3.60;;;;;;;3.28;39.76;100319.47;10441373;28;20245;-73
2023/04/04 01:43:22;;;;;;;5.87;2.87;;;;;;;1.92;40.55;100304.50;10437356;28;20238;-73
2023/04/04 01:48:25;;;;;;;3.67;3.10;;;;;;;3.08;40.17;100299.91;10431317;28;20665;-73
2023/04/04 01:53:27;;;;;;;4.53;3.80;;;;;;;1.05;42.17;100280.91;10438060;28;20233;-73
2023/04/04 01:58:29;;;;;;;4.40;4.10;;;;;;;2.53;40.67;100294.53;10439633;28;20237;-71
2023/04/04 02:03:30;;;;;;;4.37;4.00;;;;;;;2.54;41.54;100296.19;10437612;28;20760;-73
2023/04/04 02:08:32;;;;;;;4.97;2.90;;;;;;;1.79;41.50;100294.88;10437421;28;20231;-73
2023/04/04 02:13:36;;;;;;;4.90;3.23;;;;;;;2.16;41.66;100286.81;10438107;28;20226;-75
2023/04/04 02:18:37;;;;;;;3.33;2.90;;;;;;;3.78;40.02;100308.38;10438622;28;20248;-73
2023/04/04 02:23:39;;;;;;;3.53;3.20;;;;;;;2.83;41.02;100300.16;10434357;28;20230;-73
2023/04/04 02:28:41;;;;;;;5.20;3.87;;;;;;;3.09;40.55;100295.47;10441837;28;20233;-73
2023/04/04 02:33:43;;;;;;;3.37;3.07;;;;;;;3.31;40.09;100299.91;10440421;28;20232;-73
2023/04/04 02:38:44;;;;;;;4.43;3.50;;;;;;;3.19;40.50;100293.78;10436587;28;20226;-73
2023/04/04 02:43:46;;;;;;;3.90;3.60;;;;;;;2.87;40.16;100301.59;10439500;28;20237;-73
2023/04/04 02:48:48;;;;;;;3.60;3.20;;;;;;;2.56;41.44;100292.59;10441940;28;20267;-73
2023/04/04 02:53:50;;;;;;;3.43;3.13;;;;;;;1.80;41.47;100280.69;10432894;28;20231;-73
2023/04/04 02:58:51;;;;;;;7.13;4.20;;;;;;;2.81;40.88;100286.25;10440361;28;20326;-72
2023/04/04 03:03:53;;;;;;;5.73;3.93;;;;;;;2.57;40.88;100284.56;10419787;28;20245;-73
2023/04/04 03:08:55;;;;;;;3.23;3.00;;;;;;;2.10;41.18;100287.25;10400665;28;20239;-73
2023/04/04 03:13:57;;;;;;;5.03;3.03;;;;;;;2.81;40.49;100281.78;10440921;28;20231;-73
2023/04/04 03:18:58;;;;;;;4.73;3.13;;;;;;;2.79;40.38;100283.72;10439799;28;20246;-73
2023/04/04 03:24:00;;;;;;;5.60;3.80;;;;;;;1.85;41.43;100277.72;10438938;28;20227;-72
2023/04/04 03:29:03;;;;;;;4.00;3.60;;;;;;;2.08;41.16;100283.91;10433946;28;20237;-73
2023/04/04 03:34:05;;;;;;;5.87;3.40;;;;;;;1.79;41.88;100278.16;10446863;28;20306;-73
2023/04/04 03:39:06;;;;;;;4.47;3.80;;;;;;;3.39;40.42;100283.38;10435168;28;20227;-73
2023/04/04 03:44:08;;;;;;;3.97;3.67;;;;;;;1.92;41.58;100272.81;10434265;28;20344;-73
2023/04/04 03:49:10;;;;;;;4.87;3.43;;;;;;;2.19;40.76;100290.16;10441134;28;20244;-73
2023/04/04 03:54:12;;;;;;;3.33;3.10;;;;;;;3.06;40.20;100285.16;10434584;28;20880;-73
2023/04/04 03:59:13;;;;;;;4.10;3.40;;;;;;;2.74;40.58;100301.75;10435163;28;20242;-73
2023/04/04 04:04:15;;;;;;;5.47;3.80;;;;;;;3.09;39.67;100312.19;10437111;28;20229;-73
2023/04/04 04:09:17;;;;;;;4.83;3.90;;;;;;;1.91;40.99;100300.16;10437149;28;20324;-73
2023/04/04 04:14:19;;;;;;;4.10;3.70;;;;;;;2.26;41.72;100296.66;10445519;28;20313;-73
2023/04/04 04:19:21;;;;;;;4.33;3.23;;;;;;;2.65;40.60;100297.16;10440660;28;20311;-74
2023/04/04 04:24:23;;;;;;;3.53;3.23;;;;;;;2.09;41.08;100311.13;10441771;28;20233;-72
2023/04/04 04:29:25;;;;;;;4.23;3.37;;;;;;;2.75;40.41;100300.75;10439095;28;20237;-73
2023/04/04 04:34:27;;;;;;;3.63;3.33;;;;;;;3.02;40.20;100299.56;10442353;28;20228;-74
2023/04/04 04:39:29;;;;;;;4.20;3.80;;;;;;;2.58;40.61;100302.06;10441372;28;20240;-75
2023/04/04 04:44:31;;;;;;;4.10;3.70;;;;;;;1.50;41.67;100294.38;10447443;28;20573;-72
2023/04/04 04:49:33;;;;;;;6.17;4.33;;;;;;;2.62;40.70;100307.97;10447725;28;20242;-72
2023/04/04 04:54:34;;;;;;;7.83;3.93;;;;;;;2.92;40.44;100299.44;10435476;28;20222;-74
2023/04/04 04:59:36;;;;;;;3.57;3.30;;;;;;;2.07;41.52;100289.31;10449227;28;20237;-72
2023/04/04 05:04:40;;;;;;;3.90;3.60;;;;;;;2.50;40.47;100304.47;10445004;28;20229;-72
2023/04/04 05:09:41;;;;;;;5.30;4.07;;;;;;;2.99;40.83;100300.66;10436824;28;20760;-72
2023/04/04 05:14:48;;;;;;;5.50;3.70;;;;;;;2.13;41.81;100305.53;10436581;28;20251;-72
2023/04/04 05:19:50;;;;;;;3.47;3.17;;;;;;;1.58;42.38;100289.38;10445330;28;20291;-72
2023/04/04 05:24:52;;;;;;;3.73;3.40;;;;;;;2.26;41.87;100297.47;10426206;28;20227;-73
2023/04/04 05:29:53;;;;;;;6.33;3.57;;;;;;;2.32;41.53;100298.81;10444223;23;20634;-36
2023/04/04 05:34:55;;;;;;;3.80;3.50;;;;;;;2.18;41.91;100297.25;10397040;28;20239;-36
2023/04/04 05:39:57;;;;;;;5.83;4.57;;;;;;;2.71;40.81;100309.91;10398359;28;20645;-37
2023/04/04 05:44:59;;;;;;;3.80;3.50;;;;;;;2.67;40.33;100306.66;10432823;23;20228;-71
2023/04/04 05:50:00;;;;;;;4.90;4.50;;;;;;;1.65;41.91;100310.03;10426166;28;20489;-71
2023/04/04 05:55:02;;;;;;;5.57;3.60;;;;;;;1.08;41.06;100322.84;10434481;28;20224;-71
2023/04/04 06:00:05;;;;;;;4.10;3.80;;;;;;;2.96;40.29;100327.34;10427297;28;20240;-72
2023/04/04 06:05:07;;;;;;;5.00;3.90;;;;;;;4.36;38.97;100362.78;10431454;28;20241;-71
2023/04/04 06:10:09;;;;;;;3.30;3.00;;;;;;;3.21;39.78;100367.69;10432650;28;20545;-71
2023/04/04 06:15:10;;;;;;;3.50;3.20;;;;;;;2.66;40.22;100360.47;10433211;28;20237;-71
2023/04/04 06:20:12;;;;;;;7.37;3.70;;;;;;;3.13;40.21;100365.69;10431370;28;20229;-71
2023/04/04 06:25:14;;;;;;;4.70;3.37;;;;;;;2.48;40.00;100383.84;10435854;28;20260;-71
2023/04/04 06:30:17;;;;;;;4.63;4.17;;;;;;;4.23;39.07;100384.13;10433874;28;20238;-71
2023/04/04 06:35:18;;;;;;;5.37;3.67;;;;;;;2.42;39.69;100396.72;10435317;28;20629;-72
2023/04/04 06:40:21;;;;;;;5.20;3.70;;;;;;;4.51;39.40;100400.41;10422580;28;20227;-71
2023/04/04 06:45:23;;;;;;;3.93;3.37;;;;;;;4.75;38.27;100408.91;10432997;28;20431;-72
2023/04/04 06:50:28;;;;;;;5.20;3.90;;;;;;;3.73;38.94;100416.47;10430013;28;20242;-72
2023/04/04 06:55:29;;;;;;;5.63;4.20;;;;;;;4.02;38.68;100410.59;10432774;28;20239;-72
2023/04/04 07:00:31;;;;;;;3.80;3.40;;;;;;;5.37;37.52;100443.41;10412512;28;20717;-72
2023/04/04 07:05:38;;;;;;;5.73;3.23;;;;;;;3.92;38.63;100437.00;10432921;28;20278;-71
2023/04/04 07:10:39;;;;;;;4.50;4.03;;;;;;;3.63;38.89;100421.66;10430270;28;20330;-71
2023/04/04 07:15:47;;;;;;;3.73;3.17;;;;;;;4.45;38.59;100430.06;10421115;28;20230;-72
2023/04/04 07:20:49;;;;;;;6.53;3.57;;;;;;;3.91;38.42;100435.28;10429651;28;20235;-71
2023/04/04 07:25:50;;;;;;;5.33;3.40;;;;;;;4.09;38.48;100435.59;10430061;28;20235;-71
2023/04/04 07:30:52;;;;;;;4.47;3.40;;;;;;;3.57;38.49;100448.59;10430519;28;20257;-71
2023/04/04 07:35:54;;;;;;;5.17;3.37;;;;;;;5.21;37.39;100445.72;10426694;28;20224;-71
2023/04/04 07:40:55;;;;;;;4.37;3.97;;;;;;;4.23;37.91;100449.53;10424170;28;20247;-71
2023/04/04 07:45:57;;;;;;;4.70;4.00;;;;;;;4.59;37.50;100445.63;10429981;28;20763;-71
2023/04/04 07:51:03;;;;;;;5.07;3.30;;;;;;;4.86;36.82;100447.78;10442745;28;20257;-71
2023/04/04 07:56:08;;;;;;;3.60;3.30;;;;;;;5.67;36.65;100441.69;10435757;28;20227;-72
2023/04/04 08:01:09;;;;;;;3.80;3.50;;;;;;;4.33;36.97;100456.59;10437927;28;20239;-72
2023/04/04 08:06:11;;;;;;;5.20;3.50;;;;;;;4.37;37.01;100466.00;10432555;28;20235;-72
2023/04/04 08:11:13;;;;;;;4.23;3.93;;;;;;;5.97;36.55;100469.16;10429428;28;20239;-71
2023/04/04 08:16:15;;;;;;;5.87;3.30;;;;;;;5.50;36.66;100485.63;10442484;28;20245;-72
2023/04/04 08:21:17;;;;;;;2.90;2.63;;;;;;;4.86;36.27;100465.47;10414184;28;20389;-72
2023/04/04 08:26:20;;;;;;;4.57;3.40;;;;;;;5.20;36.27;100491.78;10431625;28;20239;-72
2023/04/04 08:31:22;;;;;;;3.47;3.27;;;;;;;5.89;36.34;100485.78;10438963;28;20235;-71
2023/04/04 08:36:24;;;;;;;4.67;4.23;;;;;;;4.94;36.92;100508.13;10428917;28;20274;-72
2023/04/04 08:41:26;;;;;;;4.50;3.73;;;;;;;6.61;35.71;100491.72;10426238;28;20722;-72
2023/04/04 08:46:28;;;;;;;5.23;3.70;;;;;;;5.63;35.86;100514.66;10430272;28;20610;-72
2023/04/04 08:51:33;;;;;;;4.90;4.03;;;;;;;6.68;35.20;100497.31;10432465;28;20709;-72
2023/04/04 08:56:34;;;;;;;4.40;3.50;;;;;;;4.39;36.22;100466.72;10414311;28;20741;-72
2023/04/04 09:01:36;;;;;;;3.97;3.47;;;;;;;5.72;35.27;100511.16;10430284;28;20559;-71
2023/04/04 09:06:39;;;;;;;8.20;3.93;;;;;;;7.01;34.13;100492.53;10431283;28;20690;-72
2023/04/04 09:11:44;;;;;;;3.43;3.13;;;;;;;6.79;34.72;100521.13;10427872;28;20683;-72
2023/04/04 09:16:45;;;;;;;3.57;3.27;;;;;;;7.06;34.26;100512.41;10440234;28;20327;-72
2023/04/04 09:21:48;;;;;;;4.00;3.60;;;;;;;6.36;34.51;100530.34;10439622;28;20243;-72
2023/04/04 09:26:51;;;;;;;5.30;3.77;;;;;;;7.66;33.07;100498.75;10427488;28;20461;-72
2023/04/04 09:31:54;;;;;;;3.33;3.03;;;;;;;7.32;34.33;100538.41;10433954;28;20290;-72
2023/04/04 09:36:56;;;;;;;3.27;2.97;;;;;;;6.79;34.69;100548.56;10429744;28;20334;-72
2023/04/04 09:42:00;;;;;;;3.20;2.90;;;;;;;5.70;33.62;100507.81;10427856;28;20231;-72
2023/04/04 09:47:24;;;;;;;4.20;3.30;;;;;;;7.15;34.17;100546.13;10427094;28;20228;-72
2023/04/04 09:52:34;;;;;;;3.97;3.43;;;;;;;7.29;33.88;100547.53;10428060;28;20634;-71
2023/04/04 09:57:36;;;;;;;4.60;3.57;;;;;;;6.44;33.90;100541.94;10422832;28;20502;-71
2023/04/04 10:02:45;;;;;;;3.90;3.50;;;;;;;7.67;34.09;100527.06;10432815;28;20235;-71
2023/04/04 10:07:47;;;;;;;5.13;3.60;;;;;;;6.75;34.80;100559.59;10420870;28;20231;-71
2023/04/04 10:12:51;;;;;;;3.67;3.00;;;;;;;7.79;33.94;100533.03;10434056;28;20238;-71
2023/04/04 10:17:54;;;;;;;7.30;3.23;;;;;;;6.82;33.35;100544.81;10426490;28;20246;-71
2023/04/04 10:22:57;;;;;;;3.43;3.07;;;;;;;8.12;32.75;100528.13;10429670;28;20643;-72
2023/04/04 10:27:59;;;;;;;3.53;3.23;;;;;;;7.60;33.18;100517.97;10432870;28;20235;-71
2023/04/04 10:33:06;;;;;;;5.00;3.80;;;;;;;7.08;33.78;100534.41;10429050;28;20232;-71
2023/04/04 10:38:08;;;;;;;6.90;3.30;;;;;;;7.46;33.55;100555.72;10434537;28;20648;-71
2023/04/04 10:43:11;;;;;;;4.33;3.93;;;;;;;7.54;33.37;100561.19;10434758;28;20232;-71
2023/04/04 10:48:13;;;;;;;4.17;3.47;;;;;;;6.69;33.50;100530.91;10437199;28;20243;-71
2023/04/04 10:53:15;;;;;;;4.43;4.03;;;;;;;8.09;34.22;100529.25;10433658;28;20224;-71
2023/04/04 10:58:17;;;;;;;4.07;3.67;;;;;;;6.70;33.80;100521.94;10427849;28;20243;-71
2023/04/04 11:07:11;;;;;;;4.97;3.00;;;;;;;6.06;36.29;100538.28;10390651;27;20847;-69
2023/04/04 11:12:19;;;;;;;3.07;2.80;;;;;;;8.11;34.42;100451.78;10383571;28;20228;-70
2023/04/04 11:17:53;;;;;;;4.47;3.43;;;;;;;7.57;34.22;100507.63;10384750;28;20235;-70
2023/04/04 11:23:21;;;;;;;4.30;3.10;;;;;;;7.09;35.29;100496.16;10389122;28;20243;-70
2023/04/04 11:28:35;;;;;;;3.50;3.20;;;;;;;7.04;33.49;100476.25;10384263;28;20234;-69
2023/04/04 11:33:56;;;;;;;3.10;2.80;;;;;;;7.83;33.88;100482.94;10382495;28;20244;-68
2023/04/04 11:38:58;;;;;;;4.17;2.87;;;;;;;7.36;34.69;100505.19;10380444;28;20260;-68
2023/04/04 11:44:08;;;;;;;4.07;3.10;;;;;;;7.25;34.90;100503.53;10381180;28;20268;-69
2023/04/04 11:49:15;;;;;;;4.60;3.60;;;;;;;6.54;34.79;100496.75;10390433;28;20229;-69
2023/04/04 11:54:17;;;;;;;5.37;3.33;;;;;;;7.80;34.69;100488.59;10387685;28;20238;-69
2023/04/04 11:59:20;;;;;;;4.17;3.27;;;;;;;8.50;33.97;100459.47;10387545;28;20228;-71
2023/04/04 12:04:24;;;;;;;4.07;3.10;;;;;;;8.40;34.09;100467.53;10390969;28;20690;-69
2023/04/04 12:09:27;;;;;;;5.30;3.43;;;;;;;8.07;33.69;100459.25;10391373;28;20232;-69
2023/04/04 12:14:31;;;;;;;5.30;4.00;;;;;;;7.31;34.36;100465.69;10378090;28;20248;-69
2023/04/04 12:19:37;;;;;;;5.30;3.00;;;;;;;8.47;32.76;100452.63;10357931;28;20328;-69
2023/04/04 12:24:40;;;;;;;5.13;3.57;;;;;;;8.24;33.71;100456.75;10354185;28;20244;-69
2023/04/04 12:29:44;;;;;;;4.10;3.70;;;;;;;8.09;33.54;100448.44;10362220;28;20240;-69
2023/04/04 12:34:46;;;;;;;3.97;3.20;;;;;;;7.84;33.14;100458.84;10359903;28;20772;-69
2023/04/04 12:39:51;;;;;;;6.17;3.53;;;;;;;7.24;33.69;100442.44;10360376;28;20734;-69
2023/04/04 12:44:53;;;;;;;5.93;3.20;;;;;;;7.52;33.84;100465.44;10360865;28;20246;-69
2023/04/04 12:49:55;;;;;;;3.93;3.17;;;;;;;8.35;33.74;100463.69;10362492;28;20233;-69
2023/04/04 12:54:59;;;;;;;4.27;3.40;;;;;;;8.14;33.15;100456.81;10358578;28;20250;-69
2023/04/04 13:00:12;;;;;;;3.83;3.30;;;;;;;7.90;32.70;100455.59;10362958;28;20387;-69
2023/04/04 13:05:16;;;;;;;3.50;3.20;;;;;;;7.24;32.90;100443.31;10357965;28;20247;-70
2023/04/04 13:10:19;;;;;;;4.33;3.50;;;;;;;8.40;33.08;100443.53;10358039;28;20248;-70
2023/04/04 13:15:21;;;;;;;4.10;3.67;;;;;;;8.09;33.19;100433.28;10359561;28;20227;-70
2023/04/04 13:20:24;;;;;;;6.73;3.33;;;;;;;7.44;32.77;100420.09;10360146;28;20226;-70
2023/04/04 13:25:26;;;;;;;4.27;3.40;;;;;;;8.10;32.73;100437.63;10366165;28;20250;-70
2023/04/04 13:30:28;;;;;;;3.60;3.30;;;;;;;8.56;32.65;100420.69;10364992;28;20239;-70
2023/04/04 13:35:30;;;;;;;3.77;3.47;;;;;;;10.42;32.42;100322.72;10372383;28;20397;-70
2023/04/04 13:40:32;;;;;;;5.07;3.20;;;;;;;9.25;32.09;100392.25;10368181;28;20234;-71
2023/04/04 13:45:34;;;;;;;3.00;2.70;;;;;;;8.74;32.53;100410.81;10361820;28;20637;-71
2023/04/04 13:50:42;;;;;;;4.00;3.23;;;;;;;8.48;32.21;100406.28;10362113;28;20889;-71
2023/04/04 13:55:44;;;;;;;4.67;3.30;;;;;;;9.54;32.11;100351.75;10359212;28;20239;-72
2023/04/04 14:01:07;;;;;;;3.40;3.00;;;;;;;10.19;31.43;100328.78;10355637;28;20576;-68
2023/04/04 14:06:09;;;;;;;4.17;3.20;;;;;;;8.78;32.68;100381.97;10359225;28;20267;-72
2023/04/04 14:11:12;;;;;;;4.10;3.30;;;;;;;8.91;32.48;100382.41;10360967;28;20251;-70
2023/04/04 14:16:15;;;;;;;3.83;3.10;;;;;;;9.45;32.14;100352.75;10362720;28;20234;-71
2023/04/04 14:21:17;;;;;;;3.67;3.20;;;;;;;7.73;33.20;100305.34;10358233;28;20751;-71
2023/04/04 14:26:18;;;;;;;4.97;3.07;;;;;;;9.54;32.05;100345.59;10361061;28;20230;-71
2023/04/04 14:31:20;;;;;;;4.43;3.33;;;;;;;9.20;32.77;100358.00;10363095;28;20237;-71
2023/04/04 14:36:23;;;;;;;4.63;3.40;;;;;;;9.53;31.95;100358.13;10360303;28;20700;-71
2023/04/04 14:41:25;;;;;;;4.80;3.53;;;;;;;9.76;31.20;100320.88;10358989;28;20229;-71
2023/04/04 14:46:26;;;;;;;3.67;3.00;;;;;;;9.11;31.78;100347.44;10362200;28;20225;-71
2023/04/04 14:51:28;;;;;;;3.63;3.33;;;;;;;10.56;31.89;100299.78;10362435;28;20681;-71
2023/04/04 14:56:30;;;;;;;3.63;2.77;;;;;;;9.71;31.95;100336.59;10355235;28;20349;-71
2023/04/04 15:01:32;;;;;;;3.67;3.00;;;;;;;9.30;31.92;100332.97;10359852;28;20754;-71
2023/04/04 15:06:36;;;;;;;4.13;2.73;;;;;;;8.92;31.35;100316.50;10361590;28;20236;-71
2023/04/04 15:11:38;;;;;;;3.57;3.27;;;;;;;8.80;31.89;100340.78;10356517;28;20233;-70
2023/04/04 15:16:40;;;;;;;4.00;3.03;;;;;;;10.06;30.75;100307.91;10363599;28;20228;-71
2023/04/04 15:21:42;;;;;;;3.90;3.40;;;;;;;9.53;30.63;100311.84;10364600;28;20237;-70
2023/04/04 15:26:43;;;;;;;3.40;3.00;;;;;;;9.26;31.69;100312.97;10358503;28;20234;-70
2023/04/04 15:31:46;;;;;;;4.20;2.80;;;;;;;10.48;31.30;100281.91;10354112;28;20247;-70
2023/04/04 15:36:50;;;;;;;4.37;2.90;;;;;;;10.77;31.32;100248.38;10359504;28;20654;-70
2023/04/04 15:41:51;;;;;;;4.17;3.30;;;;;;;9.56;31.66;100304.31;10347530;28;20814;-70
2023/04/04 15:46:53;;;;;;;3.60;3.27;;;;;;;10.10;31.56;100278.97;10350791;28;20252;-71
2023/04/04 15:51:55;;;;;;;3.70;3.40;;;;;;;9.62;31.15;100285.97;10357096;28;20249;-69
2023/04/04 15:56:57;;;;;;;4.20;2.90;;;;;;;10.45;31.55;100264.34;10363611;28;20223;-71
2023/04/04 16:01:59;;;;;;;3.43;3.13;;;;;;;10.04;31.22;100275.16;10360468;28;20251;-71
2023/04/04 16:07:00;;;;;;;4.53;3.10;;;;;;;9.91;31.82;100272.16;10358243;28;20764;-70
2023/04/04 16:12:02;;;;;;;2.83;2.63;;;;;;;10.75;30.52;100237.00;10360249;28;20355;-72
2023/04/04 16:17:04;;;;;;;3.97;3.00;;;;;;;10.12;31.25;100271.63;10365832;28;20667;-72
2023/04/04 16:22:05;;;;;;;4.17;3.13;;;;;;;8.89;32.01;100260.78;10359243;28;20233;-72
2023/04/04 16:27:07;;;;;;;3.93;2.70;;;;;;;8.66;32.25;100264.84;10357476;28;20788;-74
2023/04/04 16:32:09;;;;;;;3.20;2.90;;;;;;;9.32;31.80;100248.22;10362724;28;20256;-73
2023/04/04 16:37:11;;;;;;;3.00;2.70;;;;;;;9.39;31.47;100234.03;10361713;28;20203;-71
2023/04/04 16:42:18;;;;;;;3.60;3.30;;;;;;;9.64;31.43;100241.22;10354811;28;20257;-72
2023/04/04 16:47:19;;;;;;;3.67;3.13;;;;;;;9.74;31.05;100247.25;10358347;28;20233;-72
2023/04/04 16:52:21;;;;;;;3.83;3.43;;;;;;;9.79;31.36;100239.56;10357331;28;20241;-71
2023/04/04 16:57:23;;;;;;;3.63;3.30;;;;;;;10.22;31.12;100223.28;10368237;28;20233;-71
2023/04/04 17:02:25;;;;;;;3.37;3.07;;;;;;;10.25;31.15;100221.09;10364441;28;20232;-72
2023/04/04 17:07:27;;;;;;;4.00;3.43;;;;;;;10.96;30.63;100207.78;10367411;28;20682;-71
2023/04/04 17:12:28;;;;;;;4.17;3.33;;;;;;;9.47;31.54;100230.53;10369877;28;20236;-71
2023/04/04 17:17:30;;;;;;;5.63;3.43;;;;;;;9.81;31.21;100244.72;10356364;28;20229;-71
2023/04/04 17:22:32;;;;;;;4.33;2.70;;;;;;;9.99;30.18;100231.19;10366374;28;20417;-71
2023/04/04 17:27:33;;;;;;;4.40;3.50;;;;;;;9.51;30.85;100234.53;10361176;28;20244;-71
2023/04/04 17:32:35;;;;;;;5.53;2.97;;;;;;;9.59;31.19;100228.38;10371039;23;20694;-37
2023/04/04 17:37:37;;;;;;;4.83;3.20;;;;;;;10.18;30.99;100225.47;10359783;28;20233;-36
2023/04/04 17:42:38;;;;;;;3.27;2.80;;;;;;;9.87;31.40;100226.22;10364001;28;20232;-37
2023/04/04 17:47:40;;;;;;;3.77;3.20;;;;;;;9.22;31.39;100211.81;10359383;28;20544;-36
2023/04/04 17:52:42;;;;;;;3.47;3.17;;;;;;;10.14;31.01;100206.28;10356271;28;20742;-37
2023/04/04 17:57:43;;;;;;;4.17;3.40;;;;;;;10.14;31.01;100224.13;10356764;28;20875;-37
2023/04/04 18:02:45;;;;;;;3.47;2.60;;;;;;;9.66;31.58;100215.16;10356337;28;20233;-37
2023/04/04 18:07:47;;;;;;;4.03;3.20;;;;;;;10.14;31.15;100202.75;10358978;28;20248;-37
2023/04/04 18:12:49;;;;;;;3.90;3.50;;;;;;;9.93;31.10;100214.00;10355903;28;20233;-37
2023/04/04 18:17:52;;;;;;;3.80;3.50;;;;;;;9.55;31.16;100205.63;10359922;28;20240;-37
2023/04/04 18:22:53;;;;;;;6.27;3.23;;;;;;;10.43;30.71;100204.00;10346297;28;20582;-37
2023/04/04 18:27:55;;;;;;;4.00;3.10;;;;;;;9.39;31.47;100203.81;10365541;28;20617;-37
2023/04/04 18:32:57;;;;;;;4.27;3.27;;;;;;;9.81;31.66;100199.28;10290412;28;20720;-37
2023/04/04 18:37:59;;;;;;;3.13;2.87;;;;;;;10.53;31.14;100210.00;10306275;28;20233;-37
2023/04/04 18:43:04;;;;;;;3.60;3.27;;;;;;;9.07;31.73;100225.97;10315268;28;20252;-37
2023/04/04 18:48:07;;;;;;;4.70;3.13;;;;;;;10.03;31.60;100211.16;10327861;28;20595;-37
2023/04/04 18:53:09;;;;;;;3.93;3.33;;;;;;;9.76;31.53;100199.78;10333097;28;20748;-37
2023/04/04 18:58:11;;;;;;;3.83;3.43;;;;;;;9.54;31.60;100203.97;10312505;28;20240;-37
2023/04/04 19:03:13;;;;;;;3.97;3.23;;;;;;;9.55;31.59;100221.66;10313776;28;20230;-36
2023/04/04 19:08:17;;;;;;;3.57;3.27;;;;;;;8.64;32.23;100186.78;10321400;28;20212;-37
2023/04/04 19:13:18;;;;;;;3.50;3.17;;;;;;;9.50;31.75;100210.66;10320426;28;20245;-37
2023/04/04 19:18:20;;;;;;;4.20;3.80;;;;;;;10.02;31.21;100206.78;10326303;28;20235;-37
2023/04/04 19:23:22;;;;;;;5.10;3.23;;;;;;;8.40;32.95;100210.69;10323601;28;20685;-37
2023/04/04 19:28:23;;;;;;;4.13;3.73;;;;;;;8.87;32.55;100201.41;10334282;28;20268;-36
2023/04/04 19:33:26;;;;;;;5.77;3.80;;;;;;;8.53;32.64;100212.94;10411861;28;20220;-37
2023/04/04 19:38:32;;;;;;;4.60;3.63;;;;;;;8.39;32.66;100201.03;10414252;28;20638;-37
2023/04/04 19:43:34;;;;;;;4.63;3.87;;;;;;;9.21;32.51;100183.44;10404948;28;20229;-36
2023/04/04 19:48:47;;;;;;;5.73;3.70;;;;;;;9.05;32.67;100203.94;10409675;28;20704;-36
2023/04/04 19:53:52;;;;;;;4.33;3.93;;;;;;;10.03;31.74;100163.03;10402963;28;20252;-36
2023/04/04 19:58:59;;;;;;;3.90;3.50;;;;;;;9.34;32.41;100200.81;10410005;28;20299;-36
2023/04/04 20:04:07;;;;;;;7.00;4.10;;;;;;;8.95;32.53;100210.25;10403737;28;20407;-36
2023/04/04 20:09:33;;;;;;;5.10;3.47;;;;;;;9.12;32.81;100204.97;10407253;28;20614;-36
2023/04/04 20:14:35;;;;;;;4.17;3.60;;;;;;;8.42;33.78;100214.03;10409111;28;20314;-36
2023/04/04 20:19:37;;;;;;;6.57;3.57;;;;;;;7.60;34.26;100173.56;10402869;28;20785;-36
2023/04/04 20:24:41;;;;;;;4.57;4.17;;;;;;;8.84;32.66;100176.69;10406667;28;20759;-36
2023/04/04 20:29:42;;;;;;;4.27;3.73;;;;;;;8.33;33.70;100199.00;10410304;28;20243;-37
2023/04/04 20:34:46;;;;;;;4.33;3.93;;;;;;;8.05;33.63;100194.69;10406472;28;20229;-36
2023/04/04 20:39:52;;;;;;;4.40;4.00;;;;;;;8.22;33.96;100189.47;10399112;28;20232;-37
2023/04/04 20:45:10;;;;;;;4.80;3.93;;;;;;;8.59;33.52;100185.59;10408260;28;20618;-37
2023/04/04 20:50:15;;;;;;;5.13;4.63;;;;;;;8.49;33.29;100191.09;10403864;28;20228;-38
2023/04/04 20:55:17;;;;;;;4.70;4.30;;;;;;;8.33;33.29;100191.00;10402256;28;20307;-37
2023/04/04 21:00:28;;;;;;;4.40;4.00;;;;;;;8.59;33.61;100166.91;10402443;28;20236;-36
2023/04/04 21:05:33;;;;;;;4.83;3.87;;;;;;;7.02;34.73;100175.75;10404383;28;20247;-38
2023/04/04 21:10:34;;;;;;;4.70;4.17;;;;;;;7.69;34.49;100169.94;10403317;28;20581;-38
2023/04/04 21:15:38;;;;;;;5.23;4.57;;;;;;;7.87;34.27;100167.28;10403444;28;20702;-37
2023/04/04 21:20:45;;;;;;;5.47;4.13;;;;;;;6.72;35.87;100172.41;10408433;28;20314;-38
2023/04/04 21:25:47;;;;;;;4.70;4.27;;;;;;;6.87;35.74;100164.78;10403984;28;20233;-36
2023/04/04 21:30:49;;;;;;;5.17;4.37;;;;;;;6.01;37.34;100160.56;10407627;28;20718;-36
2023/04/04 21:35:53;;;;;;;6.40;4.63;;;;;;;5.64;37.04;100160.53;10405541;28;20229;-37
2023/04/04 21:41:24;;;;;;;4.93;4.50;;;;;;;5.14;37.37;100148.25;10418936;28;20231;-36
2023/04/04 21:46:28;;;;;;;4.57;3.93;;;;;;;5.93;37.05;100141.84;10393372;28;20672;-36
2023/04/04 21:51:30;;;;;;;5.27;4.17;;;;;;;6.04;36.58;100135.50;10398766;28;20717;-36
2023/04/04 21:56:32;;;;;;;8.30;4.90;;;;;;;6.04;37.17;100131.06;10407946;28;20600;-36
2023/04/04 22:01:35;;;;;;;5.13;3.90;;;;;;;4.19;38.05;100139.81;10411814;28;20230;-37
2023/04/04 22:06:37;;;;;;;4.87;4.47;;;;;;;6.01;37.21;100112.75;10399188;28;20285;-36
2023/04/04 22:11:43;;;;;;;5.20;4.70;;;;;;;5.88;37.46;100121.03;10402218;28;20315;-36
2023/04/04 22:16:44;;;;;;;5.63;4.63;;;;;;;5.95;37.10;100115.97;10407548;28;20273;-36
2023/04/04 22:21:47;;;;;;;6.43;4.80;;;;;;;4.86;38.61;100124.25;10401820;28;20247;-36
2023/04/04 22:26:49;;;;;;;5.87;5.30;;;;;;;5.40;37.45;100116.69;10395487;28;20231;-36
2023/04/04 22:31:51;;;;;;;6.30;4.63;;;;;;;5.16;37.45;100110.97;10400711;28;20252;-37
2023/04/04 22:36:53;;;;;;;8.63;5.33;;;;;;;4.68;38.63;100107.34;10401103;28;20229;-36
2023/04/04 22:41:55;;;;;;;6.43;5.13;;;;;;;5.02;37.76;100102.47;10393966;28;20305;-37
2023/04/04 22:46:57;;;;;;;5.50;4.50;;;;;;;3.91;38.68;100117.53;10358381;28;20232;-36
2023/04/04 22:51:58;;;;;;;6.43;5.53;;;;;;;5.03;38.38;100082.94;10352810;28;20741;-36
2023/04/04 22:57:00;;;;;;;6.37;4.93;;;;;;;4.92;38.36;100085.72;10355030;28;20433;-36
2023/04/04 23:02:02;;;;;;;6.17;4.67;;;;;;;6.20;37.37;100056.00;10362290;28;20246;-36
2023/04/04 23:07:05;;;;;;;4.80;4.40;;;;;;;4.92;38.63;100075.09;10366610;28;20472;-36
2023/04/04 23:12:07;;;;;;;5.07;4.47;;;;;;;4.73;38.75;100070.66;10366204;28;21280;-36
2023/04/04 23:17:08;;;;;;;6.13;5.17;;;;;;;5.45;38.50;100050.72;10361837;28;20224;-36
2023/04/04 23:22:10;;;;;;;6.33;5.30;;;;;;;4.34;39.06;100068.78;10360497;28;20217;-36
2023/04/04 23:27:12;;;;;;;6.53;4.67;;;;;;;4.97;38.86;100046.34;10403850;28;20540;-36
2023/04/04 23:32:14;;;;;;;5.33;4.83;;;;;;;5.75;37.80;100037.38;10404557;28;20245;-36